Aeroporto :
LOGIN :

Iscrizione | Disclaimer

   EN    FR    IT 

 










Sommario :    VFR   VFR Marginale   IFR   IFR Intensivo   IFR Molto Intensivo
Visibilità : 
Base nubi : 
>= 8 km
>= 3000ft
5 / 8 km
1000 / 3000 ft
1500m / 5 km
500 / 1000 ft
800 / 1500m
200 / 500 ft
< 800m
< 200 ft
Simboli :   Temporali  Nebbia  Neve Forte  Precipitazioni Forti  Vento > 20 kt
SIGMETs :   Varie  Temporali  Ghiacco  Turbolenza  Onda orograficha  Ceneri Vulcaniche






- Altitudine del aeroporto : 47 ft
- Codice IATA : CBG


EGSC - Cambridge

ULTIMO METAR :
  • 141250Z 11004KT 070V150 9999 SCT008 SCT024 07/05 Q0996

METARs OBSOLETI :
  • 141220Z 10004KT 040V150 9999 FEW008 SCT024 07/05 Q0996
  • 141150Z VRB03KT 9999 FEW008 SCT024 BKN033 06/05 Q0996
  • 141120Z VRB03KT 9999 -RA FEW011 SCT025 05/05 Q0995
  • 141050Z VRB03KT 9999 -RA FEW005 SCT011 05/04 Q0995

TAF COR TAF EGSC
Valido dal 14 a 12 ore il 14 a 18 ore UTC


141222Z 1412/1418 10006KT 9999 SCT030
PROB30
TEMPO 1416/1418 8000 SHRA BKN014



MetMap, La meteo Aeronautica in un colpo d'occhio ! - Copyright ORBIFLY Dicembre 2007 - Disclaimer

ORBIFLY MET'MAP TEAM :

Programmazione e sviluppo : Alexandra Zaïnal
Concezione e sviluppo : Baudouin d'Aumeries
Co-Programmazione e sviluppo : Marc-Olivier Méhu
Supporto tecnico e logistico : Manuel Goepfert
Aiuto per la traduzione : Arnaldo La Scala

Contatto : metmap@orbifly.com




FONTI E CREDITI :

   NOAA